EmailTwitter


Surface observations / United Kingdom / EGLL (03772)

Regions: Quebec | Canada | USA | Europe | France | UK | Elsewhere
Station
Display
Info & Location for EGLL (03772) | Help decoding METAR

Weather Conditions observed on 2018/06/19 at 23:20 UTC at LONDON/HEATHROW, UK (EGLL)

Temperature: 17.0 Celsius.

Dewpoint: 15.0 Celsius.

Relative Humidity: 88%

Humidex: 21.

Winds: Southwest at 9 km/h or 5 knots.

Mean Sea level Pressure: 102.20 kilopascals.

Horizontal visibility: 6.21 statute miles or 9.94 kilometers.

Coded METAR:

EGLL 192320Z AUTO 21005KT 9999 NCD 17/15 Q1022 NOSIG=